Terminal Aerodrome Forecast
Issued by NWS

Home | Current Version | Previous Version | Text Only | Print | Product List | Glossary On
Versions: 1 2 3 4 5 6 7 8 9 10 11 12 13 14 15 16 17 18
152
FTAK31 PAJN 201006 AAB
TAFAYA
TAF AMD
PAYA 201006Z 2010/2106 00000KT P6SM BCFG FEW002
      TEMPO 2010/2014 2SM BR BKN002
     FM201800 VRB03KT P6SM BKN150
      AMD LTD TO CLD VIS AND WIND=

USA.gov is the U.S. government's official web portal to all federal, state and local government web resources and services.